Detall de PIREP

Printer-friendly versionPDF version

[2015/02/21 15:02:00]
Flight IATA:CT3240
Pilot Number:012
Company ICAO:CAT
Aircraft Type:B738/F
PAX:160
Departing Airport: LEPA
Destination Airport: LIRF
Alternate Airport:LIRN
Online: VATSIM
Route:MORSS UM603 ALG UL5 VALMA
Flight Level:F380
No Slew and time accel
No pause
Crash detect
Detect pilot in Cockpit between each 30 and 45 minutes
15:02 Zero fuel Weight: 123884 Lbs, Fuel Weight: 15114 Lbs
15:02 VATSIM:LEPA 211430Z 25009KT 8000 FEW022 SCT046 11/09 Q1003 NOSIG
15:02 VATSIM:LIRF 211450Z 13015G25KT 9999 FEW035 SCT045 12/04 Q1008 NOSIG
15:03 Parking Brakes off
15:06 Take-off
15:06 Take off Weight: 138514 Lbs
15:06 Wind: 245º @ 007 Knots Heading: 239º
15:06 POS N39º 33´ 12´´ E002º 43´ 27´´
15:06 Gear Up: 161 Knots
15:06 Flaps:3 at 161 Knots
15:07 Flaps:2 at 174 Knots
15:07 Flaps:1 at 184 Knots
15:08 Flaps:0 at 211 Knots
15:21 Wind:302º@029 Knots Heading: 064º Ground Speed: 465 Knots Altitude 31177 ft
15:36 Wind:288º@029 Knots Heading: 072º Ground Speed: 462 Knots Altitude 37650 ft
15:51 Wind:246º@035 Knots Heading: 067º Ground Speed: 472 Knots Altitude 37650 ft
16:06 Wind:214º@029 Knots Heading: 072º Ground Speed: 389 Knots Altitude 25252 ft
16:18 Flaps:1 at 240 Knots
16:19 Flaps:2 at 232 Knots
16:20 Flaps:3 at 224 Knots
16:20 Gear Down: 223 Knots
16:21 Wind:148º@017 Knots Heading: 123º Ground Speed: 181 Knots Altitude 4274 ft
16:21 Flaps:4 at 159 Knots
16:22 Flaps:5 at 154 Knots
16:22 Flaps:6 at 160 Knots
16:22 Flaps:7 at 150 Knots
16:22 Flaps:8 at 138 Knots
16:26 TouchDown:Rate -158 ft/min Speed: 130 Knots
16:26 Flaps:7 at 98 Knots
16:26 Flaps:2 at 97 Knots
16:26 VATSIM:LIRF 211550Z 11014KT 9999 FEW035 SCT045 11/05 Q1006 NOSIG
16:26 Land
16:26 Wind:117º@015 Knots
16:26 Heading: 160º
16:26 Flight Duration: 01:20
16:26 Landing Weight: 130955 Lbs
16:26 POS N41º 49´ 58´´ E012º 16´ 07´´
16:30 Parking brakes on
16:30 Block to Block Duration: 01:27
16:30 Final Fuel: 6834 Lbls
16:30 Spent Fuel: 8280 Lbls
16:30 Flight Length: 524 NM
16:30 TOD Land Length: 524 NM

Exportar CSV

Powered by Drupal - Modified by Danger4k